sensor_id;sensor_type;location;lat;lon;timestamp;P1;durP1;ratioP1;P2;durP2;ratioP2
19030;SDS011;9648;51.130;13.978;2023-04-07T00:02:24;16.73;;;11.48;;
19030;SDS011;9648;51.130;13.978;2023-04-07T00:04:51;16.98;;;12.07;;
19030;SDS011;9648;51.130;13.978;2023-04-07T00:07:20;17.42;;;12.10;;
19030;SDS011;9648;51.130;13.978;2023-04-07T00:09:48;15.20;;;11.60;;
19030;SDS011;9648;51.130;13.978;2023-04-07T00:12:15;17.42;;;11.82;;
19030;SDS011;9648;51.130;13.978;2023-04-07T00:14:42;15.05;;;11.25;;
19030;SDS011;9648;51.130;13.978;2023-04-07T00:17:12;16.92;;;12.07;;
19030;SDS011;9648;51.130;13.978;2023-04-07T00:19:38;16.70;;;11.73;;
19030;SDS011;9648;51.130;13.978;2023-04-07T00:22:05;16.70;;;11.77;;
19030;SDS011;9648;51.130;13.978;2023-04-07T00:24:32;16.02;;;11.82;;
19030;SDS011;9648;51.130;13.978;2023-04-07T00:27:00;16.25;;;11.80;;
19030;SDS011;9648;51.130;13.978;2023-04-07T00:29:27;17.23;;;11.82;;
19030;SDS011;9648;51.130;13.978;2023-04-07T00:31:54;16.05;;;11.25;;
19030;SDS011;9648;51.130;13.978;2023-04-07T00:34:23;16.65;;;11.50;;
19030;SDS011;9648;51.130;13.978;2023-04-07T00:36:50;15.95;;;11.70;;
19030;SDS011;9648;51.130;13.978;2023-04-07T00:39:17;18.00;;;11.70;;
19030;SDS011;9648;51.130;13.978;2023-04-07T00:41:44;16.58;;;11.32;;
19030;SDS011;9648;51.130;13.978;2023-04-07T00:44:13;16.60;;;12.05;;
19030;SDS011;9648;51.130;13.978;2023-04-07T00:46:40;15.35;;;11.30;;
19030;SDS011;9648;51.130;13.978;2023-04-07T00:49:07;14.55;;;10.80;;
19030;SDS011;9648;51.130;13.978;2023-04-07T00:51:34;16.10;;;11.57;;
19030;SDS011;9648;51.130;13.978;2023-04-07T00:54:01;14.60;;;11.27;;
19030;SDS011;9648;51.130;13.978;2023-04-07T00:56:27;15.63;;;11.60;;
19030;SDS011;9648;51.130;13.978;2023-04-07T00:58:54;15.68;;;11.68;;
19030;SDS011;9648;51.130;13.978;2023-04-07T01:01:23;15.52;;;11.65;;
19030;SDS011;9648;51.130;13.978;2023-04-07T01:03:56;15.55;;;11.38;;
19030;SDS011;9648;51.130;13.978;2023-04-07T01:06:27;15.55;;;11.45;;
19030;SDS011;9648;51.130;13.978;2023-04-07T01:09:00;15.05;;;11.48;;
19030;SDS011;9648;51.130;13.978;2023-04-07T01:11:31;15.83;;;11.67;;
19030;SDS011;9648;51.130;13.978;2023-04-07T01:14:08;15.50;;;11.13;;
19030;SDS011;9648;51.130;13.978;2023-04-07T01:16:38;15.23;;;11.07;;
19030;SDS011;9648;51.130;13.978;2023-04-07T01:19:12;14.40;;;10.73;;
19030;SDS011;9648;51.130;13.978;2023-04-07T01:21:41;14.93;;;11.55;;
19030;SDS011;9648;51.130;13.978;2023-04-07T01:27:12;15.70;;;11.63;;
19030;SDS011;9648;51.130;13.978;2023-04-07T01:29:45;14.33;;;10.97;;
19030;SDS011;9648;51.130;13.978;2023-04-07T01:32:17;15.90;;;11.37;;
19030;SDS011;9648;51.130;13.978;2023-04-07T01:34:46;15.82;;;11.32;;
19030;SDS011;9648;51.130;13.978;2023-04-07T01:37:14;16.85;;;11.55;;
19030;SDS011;9648;51.130;13.978;2023-04-07T01:39:42;14.60;;;10.85;;
19030;SDS011;9648;51.130;13.978;2023-04-07T01:42:09;16.70;;;11.60;;
19030;SDS011;9648;51.130;13.978;2023-04-07T01:44:37;16.30;;;11.85;;
19030;SDS011;9648;51.130;13.978;2023-04-07T01:47:06;16.77;;;11.65;;
19030;SDS011;9648;51.130;13.978;2023-04-07T01:49:34;15.13;;;11.48;;
19030;SDS011;9648;51.130;13.978;2023-04-07T01:52:03;17.40;;;11.60;;
19030;SDS011;9648;51.130;13.978;2023-04-07T01:54:30;16.70;;;11.27;;
19030;SDS011;9648;51.130;13.978;2023-04-07T01:56:57;17.80;;;11.60;;
19030;SDS011;9648;51.130;13.978;2023-04-07T01:59:25;15.88;;;11.43;;
19030;SDS011;9648;51.130;13.978;2023-04-07T02:01:52;15.60;;;11.57;;
19030;SDS011;9648;51.130;13.978;2023-04-07T02:04:24;16.90;;;11.95;;
19030;SDS011;9648;51.130;13.978;2023-04-07T02:06:58;16.55;;;12.10;;
19030;SDS011;9648;51.130;13.978;2023-04-07T02:09:27;16.60;;;11.73;;
19030;SDS011;9648;51.130;13.978;2023-04-07T02:11:56;16.35;;;12.05;;
19030;SDS011;9648;51.130;13.978;2023-04-07T02:14:25;19.10;;;12.25;;
19030;SDS011;9648;51.130;13.978;2023-04-07T02:16:56;15.93;;;11.73;;
19030;SDS011;9648;51.130;13.978;2023-04-07T02:19:30;15.65;;;11.73;;
19030;SDS011;9648;51.130;13.978;2023-04-07T02:21:58;15.38;;;11.63;;
19030;SDS011;9648;51.130;13.978;2023-04-07T02:24:27;15.73;;;11.98;;
19030;SDS011;9648;51.130;13.978;2023-04-07T02:26:54;18.30;;;11.65;;
19030;SDS011;9648;51.130;13.978;2023-04-07T02:29:21;16.03;;;11.50;;
19030;SDS011;9648;51.130;13.978;2023-04-07T02:31:51;16.00;;;12.35;;
19030;SDS011;9648;51.130;13.978;2023-04-07T02:34:17;15.00;;;11.35;;
19030;SDS011;9648;51.130;13.978;2023-04-07T02:36:45;16.90;;;12.38;;
19030;SDS011;9648;51.130;13.978;2023-04-07T02:39:12;20.42;;;12.35;;
19030;SDS011;9648;51.130;13.978;2023-04-07T02:41:39;17.15;;;11.20;;
19030;SDS011;9648;51.130;13.978;2023-04-07T02:44:06;14.90;;;11.38;;
19030;SDS011;9648;51.130;13.978;2023-04-07T02:46:32;15.07;;;10.75;;
19030;SDS011;9648;51.130;13.978;2023-04-07T02:48:59;16.13;;;11.45;;
19030;SDS011;9648;51.130;13.978;2023-04-07T02:51:26;14.93;;;10.40;;
19030;SDS011;9648;51.130;13.978;2023-04-07T02:53:54;15.40;;;10.48;;
19030;SDS011;9648;51.130;13.978;2023-04-07T02:56:20;13.13;;;9.70;;
19030;SDS011;9648;51.130;13.978;2023-04-07T02:58:50;13.87;;;10.17;;
19030;SDS011;9648;51.130;13.978;2023-04-07T03:01:17;16.10;;;10.30;;
19030;SDS011;9648;51.130;13.978;2023-04-07T03:03:44;16.13;;;10.57;;
19030;SDS011;9648;51.130;13.978;2023-04-07T03:06:11;14.83;;;10.60;;
19030;SDS011;9648;51.130;13.978;2023-04-07T03:08:41;14.88;;;10.50;;
19030;SDS011;9648;51.130;13.978;2023-04-07T03:11:09;16.75;;;10.98;;
19030;SDS011;9648;51.130;13.978;2023-04-07T03:13:36;14.45;;;10.77;;
19030;SDS011;9648;51.130;13.978;2023-04-07T03:16:03;14.60;;;10.18;;
19030;SDS011;9648;51.130;13.978;2023-04-07T03:18:29;13.10;;;10.10;;
19030;SDS011;9648;51.130;13.978;2023-04-07T03:20:56;14.40;;;10.20;;
19030;SDS011;9648;51.130;13.978;2023-04-07T03:23:23;14.52;;;10.20;;
19030;SDS011;9648;51.130;13.978;2023-04-07T03:25:53;15.05;;;9.82;;
19030;SDS011;9648;51.130;13.978;2023-04-07T03:28:21;15.75;;;10.30;;
19030;SDS011;9648;51.130;13.978;2023-04-07T03:30:50;14.45;;;10.18;;
19030;SDS011;9648;51.130;13.978;2023-04-07T03:33:20;13.40;;;9.70;;
19030;SDS011;9648;51.130;13.978;2023-04-07T03:35:47;15.68;;;10.40;;
19030;SDS011;9648;51.130;13.978;2023-04-07T03:38:17;16.63;;;10.43;;
19030;SDS011;9648;51.130;13.978;2023-04-07T03:40:43;13.38;;;9.75;;
19030;SDS011;9648;51.130;13.978;2023-04-07T03:43:10;13.80;;;9.75;;
19030;SDS011;9648;51.130;13.978;2023-04-07T03:45:41;14.13;;;10.27;;
19030;SDS011;9648;51.130;13.978;2023-04-07T03:48:08;14.32;;;10.07;;
19030;SDS011;9648;51.130;13.978;2023-04-07T03:50:36;14.30;;;9.95;;
19030;SDS011;9648;51.130;13.978;2023-04-07T03:53:02;14.63;;;10.45;;
19030;SDS011;9648;51.130;13.978;2023-04-07T03:55:29;15.85;;;10.70;;
19030;SDS011;9648;51.130;13.978;2023-04-07T03:57:56;15.70;;;10.85;;
19030;SDS011;9648;51.130;13.978;2023-04-07T04:00:26;14.83;;;9.87;;
19030;SDS011;9648;51.130;13.978;2023-04-07T04:02:54;13.40;;;9.80;;
19030;SDS011;9648;51.130;13.978;2023-04-07T04:05:20;15.18;;;10.25;;
19030;SDS011;9648;51.130;13.978;2023-04-07T04:07:47;14.68;;;10.38;;
19030;SDS011;9648;51.130;13.978;2023-04-07T04:10:15;15.77;;;10.43;;
19030;SDS011;9648;51.130;13.978;2023-04-07T04:12:42;15.50;;;10.60;;
19030;SDS011;9648;51.130;13.978;2023-04-07T04:15:09;16.13;;;10.90;;
19030;SDS011;9648;51.130;13.978;2023-04-07T04:17:35;14.15;;;10.00;;
19030;SDS011;9648;51.130;13.978;2023-04-07T04:20:04;13.73;;;10.27;;
19030;SDS011;9648;51.130;13.978;2023-04-07T04:22:32;15.30;;;10.52;;
19030;SDS011;9648;51.130;13.978;2023-04-07T04:24:59;17.55;;;10.65;;
19030;SDS011;9648;51.130;13.978;2023-04-07T04:27:29;16.23;;;11.00;;
19030;SDS011;9648;51.130;13.978;2023-04-07T04:29:55;15.23;;;10.60;;
19030;SDS011;9648;51.130;13.978;2023-04-07T04:32:25;15.63;;;10.63;;
19030;SDS011;9648;51.130;13.978;2023-04-07T04:34:52;14.73;;;10.20;;
19030;SDS011;9648;51.130;13.978;2023-04-07T04:37:20;17.35;;;10.57;;
19030;SDS011;9648;51.130;13.978;2023-04-07T04:39:46;16.17;;;10.45;;
19030;SDS011;9648;51.130;13.978;2023-04-07T04:42:13;14.45;;;10.63;;
19030;SDS011;9648;51.130;13.978;2023-04-07T04:44:40;14.75;;;10.23;;
19030;SDS011;9648;51.130;13.978;2023-04-07T04:47:07;16.15;;;10.73;;
19030;SDS011;9648;51.130;13.978;2023-04-07T04:49:33;15.63;;;10.23;;
19030;SDS011;9648;51.130;13.978;2023-04-07T04:52:03;16.07;;;9.93;;
19030;SDS011;9648;51.130;13.978;2023-04-07T04:54:32;13.65;;;10.13;;
19030;SDS011;9648;51.130;13.978;2023-04-07T04:56:58;16.52;;;10.50;;
19030;SDS011;9648;51.130;13.978;2023-04-07T04:59:28;14.87;;;10.13;;
19030;SDS011;9648;51.130;13.978;2023-04-07T05:01:55;15.53;;;10.73;;
19030;SDS011;9648;51.130;13.978;2023-04-07T05:04:21;14.73;;;10.32;;
19030;SDS011;9648;51.130;13.978;2023-04-07T05:06:51;13.75;;;9.90;;
19030;SDS011;9648;51.130;13.978;2023-04-07T05:09:18;14.68;;;10.00;;
19030;SDS011;9648;51.130;13.978;2023-04-07T05:11:46;15.10;;;10.00;;
19030;SDS011;9648;51.130;13.978;2023-04-07T05:14:12;15.32;;;10.10;;
19030;SDS011;9648;51.130;13.978;2023-04-07T05:16:39;13.77;;;9.98;;
19030;SDS011;9648;51.130;13.978;2023-04-07T05:19:06;15.55;;;10.48;;
19030;SDS011;9648;51.130;13.978;2023-04-07T05:21:32;14.18;;;9.40;;
19030;SDS011;9648;51.130;13.978;2023-04-07T05:23:59;15.27;;;9.73;;
19030;SDS011;9648;51.130;13.978;2023-04-07T05:26:26;16.23;;;9.73;;
19030;SDS011;9648;51.130;13.978;2023-04-07T05:28:54;13.65;;;9.70;;
19030;SDS011;9648;51.130;13.978;2023-04-07T05:31:23;13.40;;;9.63;;
19030;SDS011;9648;51.130;13.978;2023-04-07T05:33:50;13.52;;;10.18;;
19030;SDS011;9648;51.130;13.978;2023-04-07T05:36:19;11.90;;;8.40;;
19030;SDS011;9648;51.130;13.978;2023-04-07T05:38:46;12.20;;;9.57;;
19030;SDS011;9648;51.130;13.978;2023-04-07T05:41:13;14.37;;;9.50;;
19030;SDS011;9648;51.130;13.978;2023-04-07T05:43:39;14.38;;;10.13;;
19030;SDS011;9648;51.130;13.978;2023-04-07T05:46:07;14.23;;;9.60;;
19030;SDS011;9648;51.130;13.978;2023-04-07T05:48:34;15.50;;;10.47;;
19030;SDS011;9648;51.130;13.978;2023-04-07T05:51:01;13.73;;;9.30;;
19030;SDS011;9648;51.130;13.978;2023-04-07T05:53:30;12.93;;;9.35;;
19030;SDS011;9648;51.130;13.978;2023-04-07T05:55:57;11.98;;;9.38;;
19030;SDS011;9648;51.130;13.978;2023-04-07T05:58:24;12.00;;;9.03;;
19030;SDS011;9648;51.130;13.978;2023-04-07T06:00:52;11.70;;;8.80;;
19030;SDS011;9648;51.130;13.978;2023-04-07T06:03:23;13.43;;;9.10;;
19030;SDS011;9648;51.130;13.978;2023-04-07T06:05:50;11.90;;;8.75;;
19030;SDS011;9648;51.130;13.978;2023-04-07T06:08:16;9.85;;;7.85;;
19030;SDS011;9648;51.130;13.978;2023-04-07T06:10:43;12.38;;;8.77;;
19030;SDS011;9648;51.130;13.978;2023-04-07T06:13:10;12.90;;;9.20;;
19030;SDS011;9648;51.130;13.978;2023-04-07T06:15:37;12.23;;;9.40;;
19030;SDS011;9648;51.130;13.978;2023-04-07T06:18:04;13.98;;;9.88;;
19030;SDS011;9648;51.130;13.978;2023-04-07T06:20:32;12.13;;;9.52;;
19030;SDS011;9648;51.130;13.978;2023-04-07T06:22:59;15.43;;;10.13;;
19030;SDS011;9648;51.130;13.978;2023-04-07T06:25:29;12.98;;;10.00;;
19030;SDS011;9648;51.130;13.978;2023-04-07T06:27:56;17.90;;;14.43;;
19030;SDS011;9648;51.130;13.978;2023-04-07T06:30:22;25.02;;;20.90;;
19030;SDS011;9648;51.130;13.978;2023-04-07T06:32:49;16.95;;;13.07;;
19030;SDS011;9648;51.130;13.978;2023-04-07T06:35:16;14.52;;;10.93;;
19030;SDS011;9648;51.130;13.978;2023-04-07T06:37:44;14.88;;;10.73;;
19030;SDS011;9648;51.130;13.978;2023-04-07T06:40:11;13.52;;;9.98;;
19030;SDS011;9648;51.130;13.978;2023-04-07T06:42:37;14.90;;;10.75;;
19030;SDS011;9648;51.130;13.978;2023-04-07T06:45:04;16.08;;;11.43;;
19030;SDS011;9648;51.130;13.978;2023-04-07T06:47:32;14.63;;;11.40;;
19030;SDS011;9648;51.130;13.978;2023-04-07T06:49:59;15.73;;;11.63;;
19030;SDS011;9648;51.130;13.978;2023-04-07T06:52:26;14.13;;;11.52;;
19030;SDS011;9648;51.130;13.978;2023-04-07T06:54:54;16.45;;;11.60;;
19030;SDS011;9648;51.130;13.978;2023-04-07T06:57:20;14.30;;;11.43;;
19030;SDS011;9648;51.130;13.978;2023-04-07T06:59:47;13.40;;;11.30;;
19030;SDS011;9648;51.130;13.978;2023-04-07T07:02:14;12.50;;;10.20;;
19030;SDS011;9648;51.130;13.978;2023-04-07T07:04:41;14.13;;;10.73;;
19030;SDS011;9648;51.130;13.978;2023-04-07T07:07:07;15.18;;;10.77;;
19030;SDS011;9648;51.130;13.978;2023-04-07T07:09:34;15.23;;;11.25;;
19030;SDS011;9648;51.130;13.978;2023-04-07T07:12:05;14.35;;;9.63;;
19030;SDS011;9648;51.130;13.978;2023-04-07T07:14:32;14.48;;;10.18;;
19030;SDS011;9648;51.130;13.978;2023-04-07T07:16:59;14.23;;;9.63;;
19030;SDS011;9648;51.130;13.978;2023-04-07T07:19:29;17.37;;;11.87;;
19030;SDS011;9648;51.130;13.978;2023-04-07T07:21:56;19.08;;;13.98;;
19030;SDS011;9648;51.130;13.978;2023-04-07T07:24:25;17.38;;;11.23;;
19030;SDS011;9648;51.130;13.978;2023-04-07T07:26:53;14.00;;;9.90;;
19030;SDS011;9648;51.130;13.978;2023-04-07T07:29:24;13.70;;;7.43;;
19030;SDS011;9648;51.130;13.978;2023-04-07T07:31:51;10.82;;;7.20;;
19030;SDS011;9648;51.130;13.978;2023-04-07T07:34:18;10.82;;;7.05;;
19030;SDS011;9648;51.130;13.978;2023-04-07T07:36:44;12.75;;;7.50;;
19030;SDS011;9648;51.130;13.978;2023-04-07T07:39:11;11.20;;;7.72;;
19030;SDS011;9648;51.130;13.978;2023-04-07T07:41:38;13.10;;;7.85;;
19030;SDS011;9648;51.130;13.978;2023-04-07T07:44:05;13.10;;;7.43;;
19030;SDS011;9648;51.130;13.978;2023-04-07T07:46:33;15.30;;;9.93;;
19030;SDS011;9648;51.130;13.978;2023-04-07T07:49:00;22.58;;;12.73;;
19030;SDS011;9648;51.130;13.978;2023-04-07T07:51:26;21.55;;;10.30;;
19030;SDS011;9648;51.130;13.978;2023-04-07T07:53:53;17.08;;;9.15;;
19030;SDS011;9648;51.130;13.978;2023-04-07T07:56:20;13.13;;;8.15;;
19030;SDS011;9648;51.130;13.978;2023-04-07T07:58:47;13.20;;;8.07;;
19030;SDS011;9648;51.130;13.978;2023-04-07T08:01:14;12.02;;;7.97;;
19030;SDS011;9648;51.130;13.978;2023-04-07T08:03:42;11.77;;;7.55;;
19030;SDS011;9648;51.130;13.978;2023-04-07T08:06:09;11.07;;;7.95;;
19030;SDS011;9648;51.130;13.978;2023-04-07T08:08:37;15.13;;;8.20;;
19030;SDS011;9648;51.130;13.978;2023-04-07T08:11:03;12.70;;;8.45;;
19030;SDS011;9648;51.130;13.978;2023-04-07T08:13:30;12.90;;;7.78;;
19030;SDS011;9648;51.130;13.978;2023-04-07T08:15:57;11.85;;;7.75;;
19030;SDS011;9648;51.130;13.978;2023-04-07T08:18:23;12.07;;;8.00;;
19030;SDS011;9648;51.130;13.978;2023-04-07T08:20:51;13.48;;;8.20;;
19030;SDS011;9648;51.130;13.978;2023-04-07T08:23:18;11.25;;;7.80;;
19030;SDS011;9648;51.130;13.978;2023-04-07T08:25:45;12.35;;;7.90;;
19030;SDS011;9648;51.130;13.978;2023-04-07T08:28:11;10.82;;;7.38;;
19030;SDS011;9648;51.130;13.978;2023-04-07T08:30:38;14.13;;;8.03;;
19030;SDS011;9648;51.130;13.978;2023-04-07T08:33:08;13.82;;;8.00;;
19030;SDS011;9648;51.130;13.978;2023-04-07T08:35:34;11.02;;;7.18;;
19030;SDS011;9648;51.130;13.978;2023-04-07T08:38:05;11.43;;;7.65;;
19030;SDS011;9648;51.130;13.978;2023-04-07T08:40:33;11.95;;;7.22;;
19030;SDS011;9648;51.130;13.978;2023-04-07T08:43:00;12.75;;;7.90;;
19030;SDS011;9648;51.130;13.978;2023-04-07T08:45:42;12.73;;;8.35;;
19030;SDS011;9648;51.130;13.978;2023-04-07T08:48:12;12.52;;;7.70;;
19030;SDS011;9648;51.130;13.978;2023-04-07T08:50:43;11.02;;;7.75;;
19030;SDS011;9648;51.130;13.978;2023-04-07T08:53:13;12.43;;;7.82;;
19030;SDS011;9648;51.130;13.978;2023-04-07T08:55:43;12.45;;;7.95;;
19030;SDS011;9648;51.130;13.978;2023-04-07T08:58:10;11.95;;;7.50;;
19030;SDS011;9648;51.130;13.978;2023-04-07T09:00:38;13.25;;;7.63;;
19030;SDS011;9648;51.130;13.978;2023-04-07T09:03:07;11.18;;;7.53;;
19030;SDS011;9648;51.130;13.978;2023-04-07T09:05:34;12.30;;;7.95;;
19030;SDS011;9648;51.130;13.978;2023-04-07T09:08:04;12.35;;;7.97;;
19030;SDS011;9648;51.130;13.978;2023-04-07T09:10:32;15.43;;;9.77;;
19030;SDS011;9648;51.130;13.978;2023-04-07T09:12:59;14.50;;;8.68;;
19030;SDS011;9648;51.130;13.978;2023-04-07T09:15:28;13.73;;;8.07;;
19030;SDS011;9648;51.130;13.978;2023-04-07T09:17:56;11.93;;;7.82;;
19030;SDS011;9648;51.130;13.978;2023-04-07T09:20:23;12.30;;;8.15;;
19030;SDS011;9648;51.130;13.978;2023-04-07T09:22:50;14.13;;;7.85;;
19030;SDS011;9648;51.130;13.978;2023-04-07T09:25:17;12.13;;;7.60;;
19030;SDS011;9648;51.130;13.978;2023-04-07T09:27:58;13.93;;;8.52;;
19030;SDS011;9648;51.130;13.978;2023-04-07T09:30:26;13.52;;;7.63;;
19030;SDS011;9648;51.130;13.978;2023-04-07T09:32:54;11.82;;;7.15;;
19030;SDS011;9648;51.130;13.978;2023-04-07T09:35:21;13.90;;;8.10;;
19030;SDS011;9648;51.130;13.978;2023-04-07T09:38:01;11.82;;;8.13;;
19030;SDS011;9648;51.130;13.978;2023-04-07T09:40:29;11.70;;;8.15;;
19030;SDS011;9648;51.130;13.978;2023-04-07T09:42:57;11.75;;;7.70;;
19030;SDS011;9648;51.130;13.978;2023-04-07T09:45:24;12.10;;;7.97;;
19030;SDS011;9648;51.130;13.978;2023-04-07T09:47:54;11.10;;;7.70;;
19030;SDS011;9648;51.130;13.978;2023-04-07T09:50:31;12.07;;;7.72;;
19030;SDS011;9648;51.130;13.978;2023-04-07T09:53:02;13.80;;;8.02;;
19030;SDS011;9648;51.130;13.978;2023-04-07T09:55:29;12.77;;;7.88;;
19030;SDS011;9648;51.130;13.978;2023-04-07T09:57:57;12.87;;;7.83;;
19030;SDS011;9648;51.130;13.978;2023-04-07T10:00:25;11.93;;;7.90;;
19030;SDS011;9648;51.130;13.978;2023-04-07T10:02:51;12.95;;;7.38;;
19030;SDS011;9648;51.130;13.978;2023-04-07T10:05:19;11.70;;;7.03;;
19030;SDS011;9648;51.130;13.978;2023-04-07T10:07:48;10.85;;;6.88;;
19030;SDS011;9648;51.130;13.978;2023-04-07T10:10:16;10.50;;;6.43;;
19030;SDS011;9648;51.130;13.978;2023-04-07T10:12:43;12.32;;;7.30;;
19030;SDS011;9648;51.130;13.978;2023-04-07T10:15:12;11.05;;;6.78;;
19030;SDS011;9648;51.130;13.978;2023-04-07T10:17:40;10.43;;;5.82;;
19030;SDS011;9648;51.130;13.978;2023-04-07T10:20:12;9.55;;;5.90;;
19030;SDS011;9648;51.130;13.978;2023-04-07T10:22:40;8.80;;;5.80;;
19030;SDS011;9648;51.130;13.978;2023-04-07T10:25:09;10.27;;;5.72;;
19030;SDS011;9648;51.130;13.978;2023-04-07T10:27:39;10.80;;;6.95;;
19030;SDS011;9648;51.130;13.978;2023-04-07T10:30:16;11.38;;;7.68;;
19030;SDS011;9648;51.130;13.978;2023-04-07T10:32:46;10.20;;;6.45;;
19030;SDS011;9648;51.130;13.978;2023-04-07T10:35:13;12.00;;;7.90;;
19030;SDS011;9648;51.130;13.978;2023-04-07T10:37:41;12.75;;;8.55;;
19030;SDS011;9648;51.130;13.978;2023-04-07T10:40:39;11.13;;;6.75;;
19030;SDS011;9648;51.130;13.978;2023-04-07T10:43:06;12.20;;;7.57;;
19030;SDS011;9648;51.130;13.978;2023-04-07T10:45:52;9.68;;;6.82;;
19030;SDS011;9648;51.130;13.978;2023-04-07T10:48:23;13.65;;;7.88;;
19030;SDS011;9648;51.130;13.978;2023-04-07T10:51:14;12.20;;;8.65;;
19030;SDS011;9648;51.130;13.978;2023-04-07T10:57:03;13.32;;;8.15;;
19030;SDS011;9648;51.130;13.978;2023-04-07T10:59:32;13.67;;;7.57;;
19030;SDS011;9648;51.130;13.978;2023-04-07T11:05:03;11.40;;;7.07;;
19030;SDS011;9648;51.130;13.978;2023-04-07T11:07:42;10.27;;;6.32;;
19030;SDS011;9648;51.130;13.978;2023-04-07T11:10:11;10.53;;;6.00;;
19030;SDS011;9648;51.130;13.978;2023-04-07T11:12:40;11.35;;;6.50;;
19030;SDS011;9648;51.130;13.978;2023-04-07T11:15:16;9.02;;;6.22;;
19030;SDS011;9648;51.130;13.978;2023-04-07T11:17:45;10.18;;;6.55;;
19030;SDS011;9648;51.130;13.978;2023-04-07T11:20:12;11.07;;;7.40;;
19030;SDS011;9648;51.130;13.978;2023-04-07T11:22:39;11.48;;;7.30;;
19030;SDS011;9648;51.130;13.978;2023-04-07T11:25:19;11.32;;;7.55;;
19030;SDS011;9648;51.130;13.978;2023-04-07T11:27:50;10.85;;;7.00;;
19030;SDS011;9648;51.130;13.978;2023-04-07T11:30:16;10.98;;;7.03;;
19030;SDS011;9648;51.130;13.978;2023-04-07T11:32:48;11.10;;;7.20;;
19030;SDS011;9648;51.130;13.978;2023-04-07T11:35:15;10.63;;;7.20;;
19030;SDS011;9648;51.130;13.978;2023-04-07T11:37:42;12.73;;;7.50;;
19030;SDS011;9648;51.130;13.978;2023-04-07T11:40:10;11.90;;;7.43;;
19030;SDS011;9648;51.130;13.978;2023-04-07T11:42:38;11.40;;;7.50;;
19030;SDS011;9648;51.130;13.978;2023-04-07T11:45:06;12.27;;;7.47;;
19030;SDS011;9648;51.130;13.978;2023-04-07T11:47:42;11.23;;;7.40;;
19030;SDS011;9648;51.130;13.978;2023-04-07T11:50:10;34.85;;;21.38;;
19030;SDS011;9648;51.130;13.978;2023-04-07T11:52:40;13.23;;;9.30;;
19030;SDS011;9648;51.130;13.978;2023-04-07T11:55:15;10.93;;;7.03;;
19030;SDS011;9648;51.130;13.978;2023-04-07T11:57:42;10.02;;;7.10;;
19030;SDS011;9648;51.130;13.978;2023-04-07T12:00:10;13.07;;;8.20;;
19030;SDS011;9648;51.130;13.978;2023-04-07T12:02:39;10.52;;;7.55;;
19030;SDS011;9648;51.130;13.978;2023-04-07T12:05:06;12.13;;;8.57;;
19030;SDS011;9648;51.130;13.978;2023-04-07T12:07:35;13.38;;;8.88;;
19030;SDS011;9648;51.130;13.978;2023-04-07T12:10:18;13.35;;;8.00;;
19030;SDS011;9648;51.130;13.978;2023-04-07T12:12:46;12.35;;;7.70;;
19030;SDS011;9648;51.130;13.978;2023-04-07T12:15:16;12.05;;;7.90;;
19030;SDS011;9648;51.130;13.978;2023-04-07T12:17:45;14.18;;;8.02;;
19030;SDS011;9648;51.130;13.978;2023-04-07T12:20:13;12.27;;;8.00;;
19030;SDS011;9648;51.130;13.978;2023-04-07T12:22:41;11.45;;;8.63;;
19030;SDS011;9648;51.130;13.978;2023-04-07T12:25:08;10.60;;;7.78;;
19030;SDS011;9648;51.130;13.978;2023-04-07T12:27:35;11.03;;;7.87;;
19030;SDS011;9648;51.130;13.978;2023-04-07T12:30:01;12.63;;;8.32;;
19030;SDS011;9648;51.130;13.978;2023-04-07T12:32:29;14.47;;;8.83;;
19030;SDS011;9648;51.130;13.978;2023-04-07T12:34:56;12.25;;;8.00;;
19030;SDS011;9648;51.130;13.978;2023-04-07T12:37:23;11.07;;;7.65;;
19030;SDS011;9648;51.130;13.978;2023-04-07T12:39:51;12.20;;;8.03;;
19030;SDS011;9648;51.130;13.978;2023-04-07T12:42:18;11.55;;;7.88;;
19030;SDS011;9648;51.130;13.978;2023-04-07T12:44:45;12.60;;;8.30;;
19030;SDS011;9648;51.130;13.978;2023-04-07T12:47:11;12.48;;;7.90;;
19030;SDS011;9648;51.130;13.978;2023-04-07T12:49:38;11.27;;;8.30;;
19030;SDS011;9648;51.130;13.978;2023-04-07T12:52:05;12.32;;;8.48;;
19030;SDS011;9648;51.130;13.978;2023-04-07T12:54:31;11.93;;;8.25;;
19030;SDS011;9648;51.130;13.978;2023-04-07T12:57:03;13.10;;;7.85;;
19030;SDS011;9648;51.130;13.978;2023-04-07T12:59:32;10.98;;;7.85;;
19030;SDS011;9648;51.130;13.978;2023-04-07T13:02:00;10.57;;;7.78;;
19030;SDS011;9648;51.130;13.978;2023-04-07T13:04:26;15.52;;;8.57;;
19030;SDS011;9648;51.130;13.978;2023-04-07T13:06:54;12.60;;;8.00;;
19030;SDS011;9648;51.130;13.978;2023-04-07T13:09:21;10.95;;;7.45;;
19030;SDS011;9648;51.130;13.978;2023-04-07T13:11:48;13.02;;;7.00;;
19030;SDS011;9648;51.130;13.978;2023-04-07T13:14:16;11.30;;;7.45;;
19030;SDS011;9648;51.130;13.978;2023-04-07T13:16:42;13.20;;;8.00;;
19030;SDS011;9648;51.130;13.978;2023-04-07T13:19:09;11.87;;;7.77;;
19030;SDS011;9648;51.130;13.978;2023-04-07T13:21:36;12.05;;;7.65;;
19030;SDS011;9648;51.130;13.978;2023-04-07T13:24:02;9.80;;;7.00;;
19030;SDS011;9648;51.130;13.978;2023-04-07T13:26:29;11.68;;;7.07;;
19030;SDS011;9648;51.130;13.978;2023-04-07T13:28:56;10.50;;;7.25;;
19030;SDS011;9648;51.130;13.978;2023-04-07T13:31:24;11.27;;;6.70;;
19030;SDS011;9648;51.130;13.978;2023-04-07T13:33:51;9.98;;;6.10;;
19030;SDS011;9648;51.130;13.978;2023-04-07T13:36:18;8.98;;;5.55;;
19030;SDS011;9648;51.130;13.978;2023-04-07T13:38:45;10.97;;;6.07;;
19030;SDS011;9648;51.130;13.978;2023-04-07T13:41:11;8.90;;;5.20;;
19030;SDS011;9648;51.130;13.978;2023-04-07T13:43:38;8.32;;;5.43;;
19030;SDS011;9648;51.130;13.978;2023-04-07T13:46:05;9.00;;;5.60;;
19030;SDS011;9648;51.130;13.978;2023-04-07T13:48:33;7.80;;;5.45;;
19030;SDS011;9648;51.130;13.978;2023-04-07T13:51:00;8.60;;;5.60;;
19030;SDS011;9648;51.130;13.978;2023-04-07T13:53:26;7.80;;;5.57;;
19030;SDS011;9648;51.130;13.978;2023-04-07T13:55:53;10.47;;;6.13;;
19030;SDS011;9648;51.130;13.978;2023-04-07T13:58:20;8.27;;;5.75;;
19030;SDS011;9648;51.130;13.978;2023-04-07T14:00:46;8.75;;;5.90;;
19030;SDS011;9648;51.130;13.978;2023-04-07T14:03:13;8.03;;;5.73;;
19030;SDS011;9648;51.130;13.978;2023-04-07T14:05:41;10.23;;;6.45;;
19030;SDS011;9648;51.130;13.978;2023-04-07T14:08:08;8.77;;;6.15;;
19030;SDS011;9648;51.130;13.978;2023-04-07T14:10:35;9.15;;;6.38;;
19030;SDS011;9648;51.130;13.978;2023-04-07T14:13:05;8.52;;;6.40;;
19030;SDS011;9648;51.130;13.978;2023-04-07T14:15:32;11.15;;;7.38;;
19030;SDS011;9648;51.130;13.978;2023-04-07T14:17:59;9.75;;;6.65;;
19030;SDS011;9648;51.130;13.978;2023-04-07T14:20:25;9.30;;;6.43;;
19030;SDS011;9648;51.130;13.978;2023-04-07T14:22:53;10.20;;;6.55;;
19030;SDS011;9648;51.130;13.978;2023-04-07T14:25:20;9.25;;;6.60;;
19030;SDS011;9648;51.130;13.978;2023-04-07T14:27:50;11.73;;;7.07;;
19030;SDS011;9648;51.130;13.978;2023-04-07T14:30:17;10.70;;;6.72;;
19030;SDS011;9648;51.130;13.978;2023-04-07T14:33:02;10.00;;;6.90;;
19030;SDS011;9648;51.130;13.978;2023-04-07T14:35:29;9.07;;;6.50;;
19030;SDS011;9648;51.130;13.978;2023-04-07T14:37:58;9.05;;;6.45;;
19030;SDS011;9648;51.130;13.978;2023-04-07T14:40:24;10.35;;;6.60;;
19030;SDS011;9648;51.130;13.978;2023-04-07T14:42:51;9.80;;;6.65;;
19030;SDS011;9648;51.130;13.978;2023-04-07T14:45:18;10.02;;;6.68;;
19030;SDS011;9648;51.130;13.978;2023-04-07T14:47:45;9.73;;;6.20;;